Time;durP1;ratioP1;P1;durP2;ratioP2;P2;SDS_P1;SDS_P2;PMS_P1;PMS_P2;Temp;Humidity;BMP_temperature;BMP_pressure;BME280_temperature;BME280_humidity;BME280_pressure;Samples;Min_cycle;Max_cycle;Signal;HPM_P1;HPM_P2
2023/03/28 00:00:07;;;;;;;5.70;3.90;;;;;;;1.04;100.00;96588.50;5010399;28;20049;-74
2023/03/28 00:02:33;;;;;;;5.18;2.95;;;;;;;1.08;100.00;96587.59;5011556;28;20072;-74
2023/03/28 00:05:01;;;;;;;3.45;2.70;;;;;;;1.02;100.00;96590.22;5011842;28;20049;-74
2023/03/28 00:07:28;;;;;;;2.67;2.47;;;;;;;1.01;100.00;96596.19;5011571;28;20184;-74
2023/03/28 00:09:56;;;;;;;2.95;2.10;;;;;;;1.00;100.00;96603.84;5008478;28;20074;-75
2023/03/28 00:12:22;;;;;;;3.88;2.05;;;;;;;0.99;100.00;96602.16;5011639;28;20061;-74
2023/03/28 00:14:49;;;;;;;2.28;1.45;;;;;;;0.90;100.00;96610.78;5011543;28;20046;-75
2023/03/28 00:17:16;;;;;;;2.08;1.50;;;;;;;0.98;100.00;96603.03;5011711;28;20440;-76
2023/03/28 00:19:45;;;;;;;2.72;2.20;;;;;;;1.03;100.00;96608.91;5010117;28;20471;-75
2023/03/28 00:22:14;;;;;;;2.80;1.60;;;;;;;1.02;100.00;96605.53;5008120;28;20050;-74
2023/03/28 00:24:42;;;;;;;2.05;1.58;;;;;;;0.99;100.00;96614.91;5011557;28;20129;-74
2023/03/28 00:27:09;;;;;;;4.88;1.75;;;;;;;0.98;100.00;96608.13;5011314;28;20046;-74
2023/03/28 00:29:36;;;;;;;2.80;1.70;;;;;;;0.95;100.00;96616.66;5010793;28;20069;-74
2023/03/28 00:32:02;;;;;;;1.58;1.48;;;;;;;0.93;100.00;96620.94;5008941;28;20160;-74
2023/03/28 00:34:29;;;;;;;1.90;1.75;;;;;;;0.93;100.00;96611.59;5011590;28;20054;-74
2023/03/28 00:36:55;;;;;;;4.10;2.08;;;;;;;0.94;100.00;96613.25;5010992;28;20046;-74
2023/03/28 00:39:25;;;;;;;2.28;1.88;;;;;;;0.85;100.00;96622.72;5010011;28;20046;-74
2023/03/28 00:41:51;;;;;;;2.08;1.63;;;;;;;0.78;100.00;96627.06;5010980;28;20077;-74
2023/03/28 00:44:41;;;;;;;3.78;2.05;;;;;;;0.66;100.00;96624.63;5011005;28;20141;-74
2023/03/28 00:47:14;;;;;;;2.60;1.50;;;;;;;0.68;100.00;96628.00;5011141;28;20054;-74
2023/03/28 00:49:41;;;;;;;1.60;1.50;;;;;;;0.62;100.00;96621.25;5009679;28;20053;-74
2023/03/28 00:52:08;;;;;;;2.13;1.75;;;;;;;0.64;100.00;96634.00;5011454;28;20068;-74
2023/03/28 00:54:38;;;;;;;2.83;1.98;;;;;;;0.64;100.00;96634.00;5012900;28;20058;-74
2023/03/28 00:57:05;;;;;;;1.50;1.40;;;;;;;0.45;100.00;96623.97;5011410;28;20046;-74
2023/03/28 00:59:35;;;;;;;3.15;1.85;;;;;;;0.53;100.00;96626.47;5010773;28;20676;-74
2023/03/28 01:02:02;;;;;;;2.85;1.70;;;;;;;0.61;100.00;96624.66;5010421;28;20057;-74
2023/03/28 01:04:35;;;;;;;2.33;1.35;;;;;;;0.67;100.00;96622.06;5010739;28;20443;-74
2023/03/28 01:07:03;;;;;;;1.73;1.55;;;;;;;0.69;100.00;96630.53;5011249;28;20045;-73
2023/03/28 01:09:31;;;;;;;2.13;1.75;;;;;;;0.63;100.00;96630.63;5011270;28;20077;-74
2023/03/28 01:11:59;;;;;;;2.63;1.77;;;;;;;0.58;100.00;96636.59;5010215;28;20389;-74
2023/03/28 01:14:28;;;;;;;2.72;2.00;;;;;;;0.62;100.00;96641.66;5011032;28;20604;-74
2023/03/28 01:16:56;;;;;;;4.70;2.10;;;;;;;0.59;100.00;96639.13;5010981;28;20041;-74
2023/03/28 01:19:41;;;;;;;3.90;1.83;;;;;;;0.58;100.00;96641.69;5011048;28;20049;-74
2023/03/28 01:22:42;;;;;;;4.63;1.98;;;;;;;0.58;100.00;96641.69;5010981;28;20053;-74
2023/03/28 01:25:51;;;;;;;1.98;1.50;;;;;;;0.58;100.00;96645.09;5007745;28;20046;-74
2023/03/28 01:28:36;;;;;;;3.50;1.92;;;;;;;0.59;100.00;96644.22;5004726;28;20129;-74
2023/03/28 01:31:22;;;;;;;2.10;1.45;;;;;;;0.60;100.00;96642.53;5010498;28;20062;-74
2023/03/28 01:34:27;;;;;;;8.57;2.13;;;;;;;0.62;100.00;96646.75;5008845;28;20065;-74
2023/03/28 01:37:04;;;;;;;2.00;1.77;;;;;;;0.53;100.00;96644.31;5005764;28;20420;-74
2023/03/28 01:39:46;;;;;;;2.63;1.65;;;;;;;0.36;100.00;96652.09;5010145;28;20053;-74
2023/03/28 01:42:22;;;;;;;3.67;1.73;;;;;;;0.23;100.00;96646.25;5010923;28;20061;-73
2023/03/28 01:44:56;;;;;;;1.85;1.08;;;;;;;0.11;100.00;96640.41;5008233;28;20046;-73
2023/03/28 01:47:26;;;;;;;1.48;1.25;;;;;;;0.17;100.00;96640.38;5010696;28;20049;-74
2023/03/28 01:50:02;;;;;;;2.35;1.55;;;;;;;0.16;100.00;96641.22;5004891;28;20057;-74
2023/03/28 01:52:36;;;;;;;2.17;1.58;;;;;;;0.09;100.00;96637.03;5010953;28;20058;-73
2023/03/28 01:55:08;;;;;;;3.97;1.90;;;;;;;0.17;100.00;96646.31;5006322;28;20065;-73
2023/03/28 01:57:41;;;;;;;3.05;1.60;;;;;;;0.15;100.00;96640.38;5010748;28;20050;-73
2023/03/28 02:00:14;;;;;;;2.00;1.60;;;;;;;-0.13;100.00;96646.53;5006605;28;20053;-74
2023/03/28 02:02:47;;;;;;;3.35;2.03;;;;;;;-0.31;100.00;96647.50;5010859;28;20046;-74
2023/03/28 02:05:18;;;;;;;5.97;2.03;;;;;;;-0.45;100.00;96645.03;5007723;28;20057;-73
2023/03/28 02:07:48;;;;;;;2.75;1.90;;;;;;;-0.54;100.00;96645.09;5010423;28;20394;-73
2023/03/28 02:10:17;;;;;;;7.07;2.20;;;;;;;-0.71;100.00;96640.06;5009762;28;20077;-73
2023/03/28 02:12:47;;;;;;;4.68;1.70;;;;;;;-0.68;100.00;96644.31;5010432;28;20045;-74
2023/03/28 02:15:17;;;;;;;2.55;1.95;;;;;;;-0.68;100.00;96646.84;5014252;28;20058;-74
2023/03/28 02:17:48;;;;;;;1.98;1.63;;;;;;;-0.49;100.00;96645.91;5014077;28;20389;-73
2023/03/28 02:20:19;;;;;;;2.08;1.35;;;;;;;-0.38;100.00;96649.22;5013768;28;20049;-74
2023/03/28 02:22:51;;;;;;;2.38;1.52;;;;;;;-0.27;100.00;96649.16;5014136;28;20512;-74
2023/03/28 02:25:18;;;;;;;2.95;1.63;;;;;;;-0.20;100.00;96647.44;5014095;28;20054;-74
2023/03/28 02:27:50;;;;;;;1.70;1.60;;;;;;;-0.12;100.00;96640.56;5013896;28;20042;-74
2023/03/28 02:30:17;;;;;;;2.53;1.55;;;;;;;-0.16;100.00;96646.56;5012819;28;20092;-75
2023/03/28 02:32:49;;;;;;;2.80;1.80;;;;;;;-0.19;100.00;96644.84;5013816;28;20135;-73
2023/03/28 02:35:16;;;;;;;2.65;2.05;;;;;;;-0.21;100.00;96640.66;5013676;28;20057;-74
2023/03/28 02:37:53;;;;;;;2.22;1.60;;;;;;;-0.20;100.00;96648.28;5013676;28;20046;-73
2023/03/28 02:40:39;;;;;;;2.90;1.88;;;;;;;-0.14;100.00;96642.31;5013174;28;20053;-74
2023/03/28 02:43:24;;;;;;;3.45;2.00;;;;;;;-0.15;100.00;96641.47;5009344;28;20061;-74
2023/03/28 02:46:04;;;;;;;1.73;1.63;;;;;;;-0.40;100.00;96645.84;5011469;28;20049;-74
2023/03/28 02:48:52;;;;;;;5.40;1.75;;;;;;;-0.47;100.00;96649.28;5012257;28;20054;-74
2023/03/28 02:51:29;;;;;;;3.22;1.75;;;;;;;-0.59;100.00;96646.81;5011715;28;20504;-74
2023/03/28 02:54:10;;;;;;;1.83;1.40;;;;;;;-0.69;100.00;96647.72;5013394;28;20068;-74
2023/03/28 02:56:43;;;;;;;2.08;1.77;;;;;;;-0.65;100.00;96649.38;5013084;28;20049;-74
2023/03/28 02:59:16;;;;;;;5.00;1.92;;;;;;;-0.57;100.00;96647.63;5012870;28;20503;-74
2023/03/28 03:01:43;;;;;;;4.85;1.90;;;;;;;-0.47;100.00;96643.38;5012063;28;20089;-74
2023/03/28 03:04:10;;;;;;;2.78;2.13;;;;;;;-0.46;100.00;96647.59;5013200;28;20054;-74
2023/03/28 03:06:36;;;;;;;6.15;2.08;;;;;;;-0.44;100.00;96641.66;5013047;28;20386;-74
2023/03/28 03:09:05;;;;;;;2.65;1.63;;;;;;;-0.42;100.00;96647.56;5012701;28;20065;-74
2023/03/28 03:11:31;;;;;;;3.20;1.98;;;;;;;-0.34;100.00;96647.50;5013414;28;20053;-74
2023/03/28 03:13:59;;;;;;;3.90;1.90;;;;;;;-0.43;100.00;96645.03;5013369;28;20053;-74
2023/03/28 03:16:27;;;;;;;1.75;1.52;;;;;;;-0.50;100.00;96644.22;5012854;28;20046;-74
2023/03/28 03:18:54;;;;;;;3.92;1.52;;;;;;;-0.46;100.00;96640.78;5013023;28;20046;-74
2023/03/28 03:21:22;;;;;;;5.15;1.67;;;;;;;-0.51;100.00;96640.81;5013110;28;20104;-74
2023/03/28 03:23:49;;;;;;;3.05;1.60;;;;;;;-0.44;100.00;96635.72;5012467;28;20084;-74
2023/03/28 03:26:17;;;;;;;1.73;1.20;;;;;;;-0.58;100.00;96635.78;5012468;28;20100;-74
2023/03/28 03:28:44;;;;;;;3.90;1.67;;;;;;;-0.73;100.00;96632.47;5012423;28;20052;-74
2023/03/28 03:31:11;;;;;;;2.58;1.40;;;;;;;-0.78;100.00;96634.19;5011089;28;20049;-74
2023/03/28 03:33:38;;;;;;;1.58;0.98;;;;;;;-0.84;100.00;96633.38;5012869;28;20053;-74
2023/03/28 03:36:05;;;;;;;2.33;1.70;;;;;;;-0.92;100.00;96632.56;5012787;28;20053;-74
2023/03/28 03:38:31;;;;;;;1.45;1.33;;;;;;;-0.96;100.00;96636.81;5013165;28;20421;-74
2023/03/28 03:40:58;;;;;;;3.45;2.10;;;;;;;-1.02;100.00;96632.56;5010742;28;20057;-74
2023/03/28 03:43:27;;;;;;;5.22;2.30;;;;;;;-1.16;100.00;96636.88;5012743;28;20620;-74
2023/03/28 03:45:55;;;;;;;3.55;2.63;;;;;;;-1.07;100.00;96636.00;5012707;28;20049;-74
2023/03/28 03:48:21;;;;;;;5.60;2.13;;;;;;;-1.06;100.00;96638.53;5013098;28;20045;-74
2023/03/28 03:50:48;;;;;;;3.67;2.53;;;;;;;-0.98;100.00;96646.13;5011866;28;20064;-74
2023/03/28 03:53:14;;;;;;;6.38;3.33;;;;;;;-1.16;100.00;96638.56;5015603;28;20057;-74
2023/03/28 03:55:41;;;;;;;14.55;4.22;;;;;;;-0.95;100.00;96641.03;5012611;28;20129;-74
2023/03/28 03:58:07;;;;;;;5.93;3.78;;;;;;;-1.04;100.00;96641.94;5012372;28;20060;-73
2023/03/28 04:00:36;;;;;;;8.80;4.50;;;;;;;-1.05;100.00;96637.66;5011855;28;20045;-74
2023/03/28 04:03:03;;;;;;;6.57;3.45;;;;;;;-1.25;100.00;96637.75;5013783;28;20613;-73
2023/03/28 04:05:29;;;;;;;3.35;2.28;;;;;;;-1.24;100.00;96643.66;5012497;28;20211;-73
2023/03/28 04:07:58;;;;;;;4.03;2.45;;;;;;;-1.32;100.00;96647.94;5012072;28;20484;-74
2023/03/28 04:10:24;;;;;;;4.68;2.70;;;;;;;-1.34;100.00;96645.38;5004548;28;20412;-73
2023/03/28 04:12:51;;;;;;;5.20;2.42;;;;;;;-1.26;100.00;96645.34;5012095;28;20416;-73
2023/03/28 04:15:17;;;;;;;2.97;2.25;;;;;;;-1.25;100.00;96641.97;5012288;28;20076;-74
2023/03/28 04:17:45;;;;;;;4.75;2.22;;;;;;;-1.20;100.00;96644.50;5012257;28;20041;-73
2023/03/28 04:20:12;;;;;;;3.80;2.50;;;;;;;-1.16;100.00;96651.28;5011459;28;20042;-73
2023/03/28 04:22:39;;;;;;;10.23;3.55;;;;;;;-1.16;100.00;96656.34;5012237;28;20473;-74
2023/03/28 04:25:05;;;;;;;3.55;2.88;;;;;;;-1.16;100.00;96652.13;5011675;28;20057;-73
2023/03/28 04:27:32;;;;;;;5.07;3.15;;;;;;;-1.23;100.00;96653.81;5011820;28;20079;-74
2023/03/28 04:29:59;;;;;;;4.47;2.60;;;;;;;-1.23;100.00;96650.44;5010612;28;20057;-73
2023/03/28 04:32:26;;;;;;;3.10;2.63;;;;;;;-1.28;100.00;96658.06;5011835;28;20080;-73
2023/03/28 04:34:53;;;;;;;6.68;2.47;;;;;;;-1.35;100.00;96666.56;5011753;28;20049;-74
2023/03/28 04:37:20;;;;;;;3.00;2.35;;;;;;;-1.35;100.00;96664.03;5011482;28;20046;-73
2023/03/28 04:39:46;;;;;;;3.38;2.25;;;;;;;-1.34;100.00;96662.31;5011753;28;20050;-74
2023/03/28 04:42:13;;;;;;;2.83;2.10;;;;;;;-1.39;100.00;96664.03;5011680;28;20060;-73
2023/03/28 04:44:40;;;;;;;3.65;2.38;;;;;;;-1.41;100.00;96673.34;5011842;28;20061;-74
2023/03/28 04:47:07;;;;;;;2.90;1.83;;;;;;;-1.37;100.00;96668.28;5010909;28;20108;-73
2023/03/28 04:49:34;;;;;;;3.70;1.95;;;;;;;-1.56;100.00;96677.63;5010112;28;20110;-72
2023/03/28 04:52:02;;;;;;;2.17;1.42;;;;;;;-1.64;100.00;96683.53;5011248;28;20062;-72
2023/03/28 04:54:28;;;;;;;2.97;1.90;;;;;;;-1.65;100.00;96671.69;5008474;28;20072;-74
2023/03/28 04:56:55;;;;;;;2.20;1.58;;;;;;;-1.66;100.00;96677.63;5012042;28;20069;-74
2023/03/28 04:59:21;;;;;;;2.25;1.55;;;;;;;-1.69;100.00;96672.53;5011439;28;20056;-74
2023/03/28 05:01:49;;;;;;;3.67;2.58;;;;;;;-1.72;100.00;96669.16;5011286;28;20061;-74
2023/03/28 05:04:16;;;;;;;3.70;2.35;;;;;;;-1.75;100.00;96681.00;5013455;28;20076;-73
2023/03/28 05:06:43;;;;;;;7.30;3.55;;;;;;;-1.75;100.00;96678.44;5010789;28;20527;-73
2023/03/28 05:09:12;;;;;;;4.57;3.65;;;;;;;-1.69;100.00;96685.25;5011201;28;20050;-73
2023/03/28 05:11:39;;;;;;;5.25;3.67;;;;;;;-1.73;100.00;96677.63;5011447;28;20046;-73
2023/03/28 05:14:05;;;;;;;4.80;3.17;;;;;;;-1.86;100.00;96690.31;5011582;28;20443;-73
2023/03/28 05:16:32;;;;;;;12.43;6.35;;;;;;;-1.83;100.00;96688.63;5011092;28;20058;-73
2023/03/28 05:18:58;;;;;;;11.77;7.60;;;;;;;-1.78;100.00;96691.16;5011239;28;20046;-73
2023/03/28 05:21:24;;;;;;;23.88;9.02;;;;;;;-1.65;100.00;96692.00;5010256;28;20527;-73
2023/03/28 05:23:51;;;;;;;13.90;6.55;;;;;;;-1.64;100.00;96697.06;5011004;28;20054;-73
2023/03/28 05:26:19;;;;;;;11.40;5.68;;;;;;;-1.65;100.00;96710.63;5010953;28;20062;-73
2023/03/28 05:28:45;;;;;;;11.93;4.78;;;;;;;-1.79;100.00;96718.25;5010826;28;20046;-73
2023/03/28 05:31:12;;;;;;;6.15;3.90;;;;;;;-1.89;100.00;96711.47;5010756;28;20046;-73
2023/03/28 05:33:39;;;;;;;6.43;3.75;;;;;;;-1.81;100.00;96714.88;5010715;28;20049;-73
2023/03/28 05:36:06;;;;;;;5.40;3.22;;;;;;;-1.82;100.00;96718.22;5008212;28;20057;-74
2023/03/28 05:38:32;;;;;;;6.13;3.97;;;;;;;-1.85;100.00;96720.78;5009283;28;20046;-75
2023/03/28 05:40:59;;;;;;;5.30;4.10;;;;;;;-1.69;100.00;96720.78;5005552;28;20049;-75
2023/03/28 05:43:27;;;;;;;8.32;5.30;;;;;;;-1.52;100.00;96729.25;5010689;28;20050;-76
2023/03/28 05:45:54;;;;;;;7.28;5.35;;;;;;;-1.46;100.00;96725.00;5010155;28;20046;-75
2023/03/28 05:48:20;;;;;;;7.60;5.18;;;;;;;-1.38;100.00;96727.53;5012736;28;20681;-75
2023/03/28 05:50:47;;;;;;;8.32;4.65;;;;;;;-1.28;100.00;96730.94;5013129;28;20788;-74
2023/03/28 05:53:14;;;;;;;5.82;4.15;;;;;;;-1.13;100.00;96733.47;5014095;28;20405;-75
2023/03/28 05:55:41;;;;;;;7.45;4.13;;;;;;;-0.91;100.00;96730.88;5014491;28;20049;-75
2023/03/28 05:58:08;;;;;;;7.65;5.40;;;;;;;-0.78;100.00;96735.06;5013830;28;20058;-75
2023/03/28 06:00:36;;;;;;;14.13;9.07;;;;;;;-0.73;100.00;96736.75;5014115;28;20054;-74
2023/03/28 06:03:02;;;;;;;19.50;10.55;;;;;;;-0.73;100.00;96743.53;5013721;28;20467;-75
2023/03/28 06:05:29;;;;;;;11.98;7.70;;;;;;;-0.74;100.00;96750.34;5014126;28;20053;-74
2023/03/28 06:07:55;;;;;;;6.93;4.38;;;;;;;-0.64;100.00;96746.03;5013436;28;20488;-74
2023/03/28 06:10:23;;;;;;;5.35;3.78;;;;;;;-0.63;100.00;96745.22;5013371;28;20077;-74
2023/03/28 06:12:49;;;;;;;5.97;3.95;;;;;;;-0.60;100.00;96747.72;5013540;28;20516;-74
2023/03/28 06:15:16;;;;;;;7.68;4.47;;;;;;;-0.58;100.00;96753.66;5013442;28;20049;-76
2023/03/28 06:17:44;;;;;;;5.22;4.55;;;;;;;-0.67;100.00;96747.75;5014157;28;20042;-76
2023/03/28 06:20:10;;;;;;;4.93;3.67;;;;;;;-0.65;100.00;96754.53;5013115;28;20133;-77
2023/03/28 06:22:37;;;;;;;5.50;3.22;;;;;;;-0.70;100.00;96757.94;5014038;28;20054;-75
2023/03/28 06:25:04;;;;;;;4.07;3.00;;;;;;;-0.57;100.00;96757.06;5013906;28;20046;-75
2023/03/28 06:27:31;;;;;;;6.85;3.00;;;;;;;-0.39;100.00;96759.53;5013753;28;20046;-75
2023/03/28 06:29:58;;;;;;;5.80;3.13;;;;;;;-0.28;100.00;96762.88;5009704;28;20053;-75
2023/03/28 06:32:25;;;;;;;6.03;3.50;;;;;;;-0.13;100.00;96751.78;5012902;28;20050;-77
2023/03/28 06:34:53;;;;;;;10.10;2.72;;;;;;;-0.20;100.00;96754.34;5013080;28;20517;-76
2023/03/28 06:37:19;;;;;;;3.13;2.40;;;;;;;0.08;100.00;96753.38;5013103;28;20057;-76
2023/03/28 06:39:49;;;;;;;8.48;3.72;;;;;;;0.19;100.00;96761.78;5012385;28;20045;-77
2023/03/28 06:42:16;;;;;;;3.78;2.78;;;;;;;0.28;100.00;96765.97;5010485;28;20108;-76
2023/03/28 06:44:42;;;;;;;8.15;3.35;;;;;;;0.36;100.00;96755.72;5005892;28;20104;-75
2023/03/28 06:47:09;;;;;;;5.78;3.53;;;;;;;0.27;100.00;96756.63;5013464;28;20507;-77
2023/03/28 06:49:35;;;;;;;4.20;2.78;;;;;;;0.55;100.00;96752.16;5013364;28;20045;-77
2023/03/28 06:52:03;;;;;;;5.18;3.15;;;;;;;0.62;100.00;96748.72;5013108;28;20045;-76
2023/03/28 06:54:30;;;;;;;4.75;3.30;;;;;;;0.88;100.00;96748.50;5009721;28;20057;-76
2023/03/28 06:56:56;;;;;;;4.35;3.15;;;;;;;1.00;100.00;96744.13;5013227;28;20057;-76
2023/03/28 06:59:22;;;;;;;4.75;3.17;;;;;;;1.29;100.00;96748.94;5011654;28;20050;-73
2023/03/28 07:01:49;;;;;;;3.65;2.92;;;;;;;1.47;100.00;96753.00;5013437;28;20050;-76
2023/03/28 07:04:15;;;;;;;6.30;3.22;;;;;;;1.44;100.00;96747.06;5013539;28;20062;-76
2023/03/28 07:06:42;;;;;;;6.10;3.60;;;;;;;1.74;100.00;96746.72;5013165;28;20104;-77
2023/03/28 07:09:10;;;;;;;10.38;3.90;;;;;;;2.01;100.00;96753.19;5013290;28;20046;-77
2023/03/28 07:11:36;;;;;;;7.75;3.47;;;;;;;2.13;100.00;96751.31;5011909;28;20053;-76
2023/03/28 07:14:03;;;;;;;7.95;3.55;;;;;;;1.98;100.00;96758.34;5012889;28;20050;-76
2023/03/28 07:16:29;;;;;;;5.82;3.30;;;;;;;1.85;100.00;96763.59;5012906;28;20046;-75
2023/03/28 07:18:56;;;;;;;8.50;4.60;;;;;;;1.65;100.00;96763.84;5012613;28;20057;-75
2023/03/28 07:21:22;;;;;;;8.10;4.45;;;;;;;1.49;100.00;96764.06;5011172;28;20060;-75
2023/03/28 07:23:49;;;;;;;9.98;4.22;;;;;;;1.40;100.00;96765.81;5012893;28;20046;-76
2023/03/28 07:26:17;;;;;;;8.30;4.15;;;;;;;1.53;100.00;96769.09;5012538;28;20049;-76
2023/03/28 07:28:43;;;;;;;7.63;3.90;;;;;;;1.99;100.00;96783.03;5012450;28;20069;-77
2023/03/28 07:31:10;;;;;;;7.68;4.25;;;;;;;2.48;100.00;96774.66;5011699;28;20054;-77
2023/03/28 07:33:37;;;;;;;6.70;4.03;;;;;;;2.21;100.00;96778.47;5009951;28;20073;-76
2023/03/28 07:36:08;;;;;;;7.10;3.67;;;;;;;2.10;100.00;96783.72;5012366;28;20049;-76
2023/03/28 07:38:35;;;;;;;9.57;3.40;;;;;;;1.94;100.00;96783.09;5011054;28;20459;-76
2023/03/28 07:41:02;;;;;;;6.78;2.97;;;;;;;1.99;100.00;96785.56;5010748;28;20128;-75
2023/03/28 07:43:30;;;;;;;9.02;3.40;;;;;;;1.76;100.00;96779.03;5012343;28;20074;-76
2023/03/28 07:46:00;;;;;;;5.93;2.75;;;;;;;1.94;100.00;96790.75;5012639;28;20496;-76
2023/03/28 07:48:26;;;;;;;4.57;3.17;;;;;;;2.35;100.00;96792.75;5012370;28;20511;-78
2023/03/28 07:50:52;;;;;;;7.13;3.13;;;;;;;3.06;100.00;96795.06;5012131;28;20523;-76
2023/03/28 07:53:19;;;;;;;10.32;3.30;;;;;;;3.40;100.00;96797.03;5011857;28;20053;-75
2023/03/28 07:55:46;;;;;;;3.72;2.45;;;;;;;3.19;100.00;96794.84;5012366;28;20057;-75
2023/03/28 07:58:12;;;;;;;8.80;3.30;;;;;;;3.15;100.00;96806.84;5012055;28;20054;-75
2023/03/28 08:00:40;;;;;;;6.60;3.03;;;;;;;3.11;100.00;96806.06;5011857;28;20045;-75
2023/03/28 08:03:07;;;;;;;7.43;2.67;;;;;;;3.67;100.00;96798.25;5011837;28;20049;-75
2023/03/28 08:05:36;;;;;;;4.95;2.35;;;;;;;4.18;100.00;96795.50;5007775;28;20042;-75
2023/03/28 08:08:02;;;;;;;;;;;;;;;4.07;100.00;96803.41;5011977;28;20092;-75
2023/03/28 08:10:29;;;;;;;;;;;;;;;4.48;100.00;96801.66;5011232;28;19921;-75
2023/03/28 08:12:55;;;;;;;;;;;;;;;4.75;100.00;96800.22;5012442;28;19921;-75
2023/03/28 08:15:21;;;;;;;;;;;;;;;4.93;97.53;96796.38;5011907;28;20414;-75
2023/03/28 08:17:49;;;;;;;;;;;;;;;5.06;94.48;96795.19;5012936;28;19926;-77
2023/03/28 08:20:15;;;;;;;;;;;;;;;4.97;94.36;96798.00;5011776;28;19964;-75
2023/03/28 08:22:42;;;;;;;;;;;;;;;5.19;96.15;96795.75;5012838;28;19936;-76
2023/03/28 08:25:08;;;;;;;;;;;;;;;5.67;95.98;96802.19;5012567;28;20470;-76
2023/03/28 08:27:34;;;;;;;;;;;;;;;5.69;92.07;96801.28;5012357;28;19921;-75
2023/03/28 08:30:01;;;;;;;;;;;;;;;5.71;91.64;96794.38;5011254;28;19921;-77
2023/03/28 08:32:27;;;;;;;;;;;;;;;5.81;92.53;96795.78;5011914;28;19932;-76
2023/03/28 08:34:56;;;;;;;;;;;;;;;6.11;91.78;96789.84;5012022;28;19933;-78
2023/03/28 08:37:23;;;;;;;;;;;;;;;5.69;91.53;96795.28;5013242;28;19929;-77
2023/03/28 08:39:51;;;;;;;;;;;;;;;4.57;91.53;96800.63;5012351;28;19928;-75
2023/03/28 08:42:24;;;;;;;;;;;;;;;4.81;92.00;96797.50;5013094;28;19925;-76
2023/03/28 08:44:56;;;;;;;;;;;;;;;4.94;88.20;96799.78;5011959;28;19921;-77
2023/03/28 08:47:25;;;;;;;;;;;;;;;4.70;94.25;96803.75;5010074;28;19936;-75
2023/03/28 08:49:54;;;;;;;;;;;;;;;4.74;91.71;96810.50;5007685;28;19921;-75
2023/03/28 08:52:22;;;;;;;;;;;;;;;4.51;92.49;96811.88;5012658;28;20021;-77
2023/03/28 08:54:51;;;;;;;;;;;;;;;4.64;92.08;96809.06;5014362;28;19922;-76
2023/03/28 08:57:20;;;;;;;;;;;;;;;4.75;92.33;96807.09;5012514;28;19925;-75
2023/03/28 08:59:50;;;;;;;;;;;;;;;5.29;95.85;96802.31;5013064;28;19957;-77
2023/03/28 09:02:17;;;;;;;;;;;;;;;5.05;89.77;96800.38;5013216;28;19932;-76
2023/03/28 09:04:44;;;;;;;;;;;;;;;5.58;94.46;96800.72;5009376;28;19921;-75
2023/03/28 09:07:16;;;;;;;;;;;;;;;5.80;85.02;96798.41;5013042;28;19944;-76
2023/03/28 09:09:48;;;;;;;;;;;;;;;6.27;88.56;96804.81;5012927;28;19944;-76
2023/03/28 09:12:26;;;;;;;;;;;;;;;6.14;78.86;96803.47;5009182;28;19921;-76
2023/03/28 09:15:05;;;;;;;;;;;;;;;5.86;77.08;96794.81;5008087;28;19937;-76
2023/03/28 09:17:38;;;;;;;;;;;;;;;5.70;79.83;96807.25;5013616;28;19984;-75
2023/03/28 09:20:13;;;;;;;;;;;;;;;5.69;75.22;96805.56;5015919;28;19921;-77
2023/03/28 09:22:46;;;;;;;;;;;;;;;5.42;75.19;96808.00;5012541;28;19921;-77
2023/03/28 09:25:22;;;;;;;;;;;;;;;5.03;82.03;96813.22;5016718;28;19990;-75
2023/03/28 09:27:54;;;;;;;;;;;;;;;5.28;79.38;96804.94;5014605;28;19921;-77
2023/03/28 09:30:23;;;;;;;;;;;;;;;5.48;83.89;96804.41;5014653;28;19921;-77
2023/03/28 09:32:51;;;;;;;;;;;;;;;6.10;76.47;96808.75;5015403;28;19965;-77
2023/03/28 09:35:19;;;;;;;;;;;;;;;5.93;73.77;96814.34;5012687;28;19991;-77
2023/03/28 09:37:46;;;;;;;;;;;;;;;5.69;75.66;96805.56;5015537;28;20386;-76
2023/03/28 09:40:16;;;;;;;;;;;;;;;5.30;72.04;96800.56;5014461;28;19921;-74
2023/03/28 09:42:49;;;;;;;;;;;;;;;4.76;75.66;96801.06;5014625;28;19932;-75
2023/03/28 09:45:22;;;;;;;;;;;;;;;4.69;77.15;96808.06;5016175;28;20383;-75
2023/03/28 09:47:49;;;;;;;;;;;;;;;4.81;77.71;96804.34;5015876;28;20300;-74
2023/03/28 09:50:16;;;;;;;;;;;;;;;4.52;76.05;96800.72;5015651;28;19926;-75
2023/03/28 09:52:42;;;;;;;;;;;;;;;4.64;76.89;96804.75;5016440;28;19933;-75
2023/03/28 09:55:15;;;;;;;;;;;;;;;4.41;77.83;96801.84;5016304;28;20404;-73
2023/03/28 09:58:03;;;;;;;;;;;;;;;4.35;77.88;96801.09;5015392;28;19968;-75
2023/03/28 10:00:29;;;;;;;;;;;;;;;4.53;73.56;96796.47;5014611;28;19928;-73
2023/03/28 10:02:55;;;;;;;;;;;;;;;4.98;74.28;96786.00;5015483;28;19921;-75
2023/03/28 10:05:30;;;;;;;;;;;;;;;5.80;71.26;96785.56;5016072;28;19942;-74
2023/03/28 10:07:58;;;;;;;;;;;;;;;6.49;68.30;96788.75;5015379;28;19925;-73
2023/03/28 10:10:25;;;;;;;;;;;;;;;6.04;60.57;96784.03;5014909;28;19922;-75
2023/03/28 10:12:56;;;;;;;;;;;;;;;6.09;63.65;96781.34;5014582;28;20004;-75
2023/03/28 10:15:31;;;;;;;;;;;;;;;6.32;62.81;96785.81;5012670;28;19936;-75
2023/03/28 10:17:59;;;;;;;;;;;;;;;6.15;62.11;96781.16;5013819;28;19932;-73
2023/03/28 10:20:25;;;;;;;;;;;;;;;6.13;63.77;96783.78;5014511;28;20364;-75
2023/03/28 10:22:53;;;;;;;;;;;;;;;5.71;62.49;96785.78;5014183;28;19932;-75
2023/03/28 10:25:21;;;;;;;;;;;;;;;5.27;62.10;96775.00;5014318;28;19921;-76
2023/03/28 10:27:48;;;;;;;;;;;;;;;5.36;64.40;96781.59;5013928;28;19932;-76
2023/03/28 10:30:20;;;;;;;;;;;;;;;5.84;62.53;96787.16;5012617;28;19935;-76
2023/03/28 10:33:06;;;;;;;;;;;;;;;5.85;59.77;96783.69;5014067;28;19921;-75
2023/03/28 10:35:33;;;;;;;;;;;;;;;6.01;58.58;96777.28;5013019;28;19926;-75
2023/03/28 10:38:03;;;;;;;;;;;;;;;6.76;58.68;96769.03;5013047;28;19922;-75
2023/03/28 10:40:30;;;;;;;;;;;;;;;6.90;57.24;96766.84;5013817;28;20015;-76
2023/03/28 10:42:57;;;;;;;;;;;;;;;7.32;59.08;96763.72;5013708;28;19932;-75
2023/03/28 10:45:30;;;;;;;;;;;;;;;7.21;52.68;96760.69;5013497;28;19936;-76
2023/03/28 10:47:58;;;;;;;;;;;;;;;7.50;54.80;96762.25;5013088;28;19932;-76
2023/03/28 10:50:27;;;;;;;;;;;;;;;7.26;56.85;96761.34;5013168;28;20322;-75
2023/03/28 10:52:55;;;;;;;;;;;;;;;7.23;57.31;96759.75;5013552;28;20417;-76
2023/03/28 10:55:23;;;;;;;;;;;;;;;7.63;55.24;96762.66;5014908;28;19921;-77
2023/03/28 10:57:54;;;;;;;;;;;;;;;7.88;55.95;96754.91;5014972;28;19922;-74
2023/03/28 11:00:24;;;;;;;;;;;;;;;7.81;52.52;96756.00;5010656;28;19921;-75
2023/03/28 11:03:10;;;;;;;;;;;;;;;7.88;53.46;96755.75;5012986;28;20021;-74
2023/03/28 11:05:42;;;;;;;;;;;;;;;7.94;54.22;96741.78;5015364;28;19928;-76
2023/03/28 11:08:18;;;;;;;;;;;;;;;7.79;52.65;96745.78;5011365;28;20273;-75
2023/03/28 11:10:51;;;;;;;;;;;;;;;7.32;52.28;96743.13;5014098;28;19953;-76
2023/03/28 11:13:25;;;;;;;;;;;;;;;7.27;53.91;96743.28;5016298;28;19925;-76
2023/03/28 11:15:56;;;;;;;;;;;;;;;7.58;54.64;96739.63;5016970;28;19926;-76
2023/03/28 11:18:33;;;;;;;;;;;;;;;7.76;52.34;96738.13;5016376;28;19936;-76
2023/03/28 11:21:07;;;;;;;;;;;;;;;8.22;61.67;96732.09;5012241;28;19921;-75
2023/03/28 11:23:39;;;;;;;;;;;;;;;8.20;51.90;96739.06;5014018;28;19952;-75
2023/03/28 11:26:08;;;;;;;;;;;;;;;7.73;50.50;96722.78;5015093;28;19949;-75
2023/03/28 11:28:38;;;;;;;;;;;;;;;7.56;51.13;96733.69;5014167;28;20388;-76
2023/03/28 11:31:05;;;;;;;;;;;;;;;7.50;51.63;96727.00;5014448;28;20273;-77
2023/03/28 11:33:35;;;;;;;;;;;;;;;7.73;51.83;96726.19;5014561;28;20331;-76
2023/03/28 11:36:05;;;;;;;;;;;;;;;7.64;52.16;96717.94;5014746;28;20406;-74
2023/03/28 11:38:33;;;;;;;;;;;;;;;7.65;56.09;96720.47;5013100;28;20295;-77
2023/03/28 11:41:02;;;;;;;;;;;;;;;7.13;52.48;96721.47;5013402;28;19925;-77
2023/03/28 11:43:31;;;;;;;;;;;;;;;6.96;52.66;96716.88;5013103;28;19921;-77
2023/03/28 11:46:02;;;;;;;;;;;;;;;6.79;52.62;96707.13;5012933;28;19925;-75
2023/03/28 11:48:30;;;;;;;;;;;;;;;6.83;49.45;96706.13;5013244;28;19936;-74
2023/03/28 11:51:02;;;;;;;;;;;;;;;7.05;50.71;96703.69;5012812;28;20283;-76
2023/03/28 11:53:30;;;;;;;;;;;;;;;7.23;52.17;96704.78;5011908;28;19921;-74
2023/03/28 11:56:02;;;;;;;;;;;;;;;7.43;53.05;96693.78;5009527;28;20027;-75
2023/03/28 11:58:29;;;;;;;;;;;;;;;7.21;52.42;96689.38;5012714;28;19960;-77
2023/03/28 12:01:02;;;;;;;;;;;;;;;7.24;52.54;96685.88;5014233;28;19922;-77
2023/03/28 12:03:32;;;;;;;;;;;;;;;7.23;56.15;96690.19;5012313;28;19921;-77